sensor_id;sensor_type;location;lat;lon;timestamp;P1;durP1;ratioP1;P2;durP2;ratioP2
46158;SDS011;31888;44.512;26.104;2023-05-10T00:01:27;25.25;;;12.05;;
46158;SDS011;31888;44.512;26.104;2023-05-10T00:03:52;19.92;;;11.85;;
46158;SDS011;31888;44.512;26.104;2023-05-10T00:06:16;20.42;;;11.85;;
46158;SDS011;31888;44.512;26.104;2023-05-10T00:08:43;20.35;;;12.07;;
46158;SDS011;31888;44.512;26.104;2023-05-10T00:11:08;21.67;;;11.30;;
46158;SDS011;31888;44.512;26.104;2023-05-10T00:13:33;20.05;;;11.77;;
46158;SDS011;31888;44.512;26.104;2023-05-10T00:15:57;20.85;;;12.48;;
46158;SDS011;31888;44.512;26.104;2023-05-10T00:18:22;23.35;;;12.60;;
46158;SDS011;31888;44.512;26.104;2023-05-10T00:20:46;18.80;;;12.30;;
46158;SDS011;31888;44.512;26.104;2023-05-10T00:23:11;24.60;;;11.55;;
46158;SDS011;31888;44.512;26.104;2023-05-10T00:25:37;21.98;;;12.13;;
46158;SDS011;31888;44.512;26.104;2023-05-10T00:28:01;22.75;;;12.20;;
46158;SDS011;31888;44.512;26.104;2023-05-10T00:30:25;24.02;;;12.82;;
46158;SDS011;31888;44.512;26.104;2023-05-10T00:32:50;20.35;;;12.25;;
46158;SDS011;31888;44.512;26.104;2023-05-10T00:35:14;20.52;;;12.25;;
46158;SDS011;31888;44.512;26.104;2023-05-10T00:37:39;20.42;;;12.25;;
46158;SDS011;31888;44.512;26.104;2023-05-10T00:40:03;26.80;;;11.75;;
46158;SDS011;31888;44.512;26.104;2023-05-10T00:42:30;22.38;;;13.60;;
46158;SDS011;31888;44.512;26.104;2023-05-10T00:44:55;21.90;;;11.93;;
46158;SDS011;31888;44.512;26.104;2023-05-10T00:47:20;22.13;;;12.80;;
46158;SDS011;31888;44.512;26.104;2023-05-10T00:49:44;23.90;;;13.13;;
46158;SDS011;31888;44.512;26.104;2023-05-10T00:52:09;20.40;;;12.98;;
46158;SDS011;31888;44.512;26.104;2023-05-10T00:54:34;23.13;;;12.82;;
46158;SDS011;31888;44.512;26.104;2023-05-10T00:56:58;20.27;;;11.98;;
46158;SDS011;31888;44.512;26.104;2023-05-10T00:59:26;23.38;;;12.32;;
46158;SDS011;31888;44.512;26.104;2023-05-10T01:01:50;23.70;;;13.25;;
46158;SDS011;31888;44.512;26.104;2023-05-10T01:04:15;26.48;;;12.63;;
46158;SDS011;31888;44.512;26.104;2023-05-10T01:06:40;24.23;;;13.77;;
46158;SDS011;31888;44.512;26.104;2023-05-10T01:09:05;22.08;;;12.30;;
46158;SDS011;31888;44.512;26.104;2023-05-10T01:11:29;22.00;;;12.25;;
46158;SDS011;31888;44.512;26.104;2023-05-10T01:13:55;18.67;;;12.65;;
46158;SDS011;31888;44.512;26.104;2023-05-10T01:16:21;20.58;;;11.98;;
46158;SDS011;31888;44.512;26.104;2023-05-10T01:18:47;18.38;;;11.05;;
46158;SDS011;31888;44.512;26.104;2023-05-10T01:21:16;19.42;;;11.32;;
46158;SDS011;31888;44.512;26.104;2023-05-10T01:27:13;19.40;;;10.95;;
46158;SDS011;31888;44.512;26.104;2023-05-10T01:32:38;19.52;;;10.82;;
46158;SDS011;31888;44.512;26.104;2023-05-10T01:35:10;23.85;;;9.85;;
46158;SDS011;31888;44.512;26.104;2023-05-10T01:37:42;18.60;;;11.15;;
46158;SDS011;31888;44.512;26.104;2023-05-10T01:40:13;21.13;;;11.85;;
46158;SDS011;31888;44.512;26.104;2023-05-10T01:42:47;24.92;;;12.27;;
46158;SDS011;31888;44.512;26.104;2023-05-10T01:45:18;17.45;;;11.00;;
46158;SDS011;31888;44.512;26.104;2023-05-10T01:47:53;17.95;;;10.55;;
46158;SDS011;31888;44.512;26.104;2023-05-10T01:50:24;22.08;;;11.80;;
46158;SDS011;31888;44.512;26.104;2023-05-10T01:52:53;19.10;;;11.93;;
46158;SDS011;31888;44.512;26.104;2023-05-10T01:55:20;20.15;;;12.02;;
46158;SDS011;31888;44.512;26.104;2023-05-10T01:57:47;18.77;;;11.32;;
46158;SDS011;31888;44.512;26.104;2023-05-10T02:00:17;21.75;;;11.40;;
46158;SDS011;31888;44.512;26.104;2023-05-10T02:02:47;21.52;;;11.27;;
46158;SDS011;31888;44.512;26.104;2023-05-10T02:05:15;16.83;;;11.05;;
46158;SDS011;31888;44.512;26.104;2023-05-10T02:07:40;19.27;;;11.20;;
46158;SDS011;31888;44.512;26.104;2023-05-10T02:10:06;24.95;;;13.77;;
46158;SDS011;31888;44.512;26.104;2023-05-10T02:12:33;21.35;;;13.23;;
46158;SDS011;31888;44.512;26.104;2023-05-10T02:15:00;24.38;;;13.88;;
46158;SDS011;31888;44.512;26.104;2023-05-10T02:17:28;20.58;;;12.75;;
46158;SDS011;31888;44.512;26.104;2023-05-10T02:19:54;27.65;;;15.32;;
46158;SDS011;31888;44.512;26.104;2023-05-10T02:22:21;20.02;;;12.27;;
46158;SDS011;31888;44.512;26.104;2023-05-10T02:24:47;21.73;;;12.55;;
46158;SDS011;31888;44.512;26.104;2023-05-10T02:27:13;19.52;;;11.63;;
46158;SDS011;31888;44.512;26.104;2023-05-10T02:29:39;15.63;;;10.80;;
46158;SDS011;31888;44.512;26.104;2023-05-10T02:32:04;18.52;;;10.85;;
46158;SDS011;31888;44.512;26.104;2023-05-10T02:34:29;20.75;;;11.23;;
46158;SDS011;31888;44.512;26.104;2023-05-10T02:36:55;20.70;;;11.90;;
46158;SDS011;31888;44.512;26.104;2023-05-10T02:39:22;21.08;;;12.68;;
46158;SDS011;31888;44.512;26.104;2023-05-10T02:41:47;24.52;;;12.18;;
46158;SDS011;31888;44.512;26.104;2023-05-10T02:44:14;19.85;;;12.05;;
46158;SDS011;31888;44.512;26.104;2023-05-10T02:46:41;18.83;;;12.35;;
46158;SDS011;31888;44.512;26.104;2023-05-10T02:49:06;18.75;;;10.80;;
46158;SDS011;31888;44.512;26.104;2023-05-10T02:51:31;17.77;;;10.85;;
46158;SDS011;31888;44.512;26.104;2023-05-10T02:53:59;17.77;;;11.13;;
46158;SDS011;31888;44.512;26.104;2023-05-10T02:56:31;21.38;;;12.18;;
46158;SDS011;31888;44.512;26.104;2023-05-10T02:58:58;19.65;;;12.20;;
46158;SDS011;31888;44.512;26.104;2023-05-10T03:01:22;18.55;;;11.70;;
46158;SDS011;31888;44.512;26.104;2023-05-10T03:03:47;18.23;;;10.60;;
46158;SDS011;31888;44.512;26.104;2023-05-10T03:06:11;16.85;;;10.68;;
46158;SDS011;31888;44.512;26.104;2023-05-10T03:08:36;17.58;;;11.40;;
46158;SDS011;31888;44.512;26.104;2023-05-10T03:11:15;17.90;;;11.27;;
46158;SDS011;31888;44.512;26.104;2023-05-10T03:13:56;18.73;;;10.57;;
46158;SDS011;31888;44.512;26.104;2023-05-10T03:16:34;18.83;;;10.85;;
46158;SDS011;31888;44.512;26.104;2023-05-10T03:19:10;18.77;;;10.85;;
46158;SDS011;31888;44.512;26.104;2023-05-10T03:21:38;21.15;;;11.90;;
46158;SDS011;31888;44.512;26.104;2023-05-10T03:24:08;17.52;;;10.70;;
46158;SDS011;31888;44.512;26.104;2023-05-10T03:26:35;18.30;;;10.98;;
46158;SDS011;31888;44.512;26.104;2023-05-10T03:29:07;22.40;;;11.02;;
46158;SDS011;31888;44.512;26.104;2023-05-10T03:31:33;18.70;;;10.75;;
46158;SDS011;31888;44.512;26.104;2023-05-10T03:33:58;18.40;;;10.95;;
46158;SDS011;31888;44.512;26.104;2023-05-10T03:36:22;17.30;;;11.93;;
46158;SDS011;31888;44.512;26.104;2023-05-10T03:38:47;16.55;;;11.10;;
46158;SDS011;31888;44.512;26.104;2023-05-10T03:41:12;18.98;;;11.32;;
46158;SDS011;31888;44.512;26.104;2023-05-10T03:43:36;17.15;;;11.23;;
46158;SDS011;31888;44.512;26.104;2023-05-10T03:46:03;20.90;;;10.75;;
46158;SDS011;31888;44.512;26.104;2023-05-10T03:48:28;20.98;;;11.82;;
46158;SDS011;31888;44.512;26.104;2023-05-10T03:50:53;32.05;;;12.23;;
46158;SDS011;31888;44.512;26.104;2023-05-10T03:53:17;18.83;;;11.45;;
46158;SDS011;31888;44.512;26.104;2023-05-10T03:55:43;20.88;;;12.35;;
46158;SDS011;31888;44.512;26.104;2023-05-10T03:58:10;20.45;;;12.25;;
46158;SDS011;31888;44.512;26.104;2023-05-10T04:00:35;21.30;;;11.93;;
46158;SDS011;31888;44.512;26.104;2023-05-10T04:03:01;22.20;;;12.65;;
46158;SDS011;31888;44.512;26.104;2023-05-10T04:05:25;20.83;;;12.73;;
46158;SDS011;31888;44.512;26.104;2023-05-10T04:07:51;20.05;;;12.57;;
46158;SDS011;31888;44.512;26.104;2023-05-10T04:10:15;20.13;;;12.30;;
46158;SDS011;31888;44.512;26.104;2023-05-10T04:12:40;23.75;;;12.23;;
46158;SDS011;31888;44.512;26.104;2023-05-10T04:15:05;23.00;;;13.10;;
46158;SDS011;31888;44.512;26.104;2023-05-10T04:17:31;21.27;;;12.32;;
46158;SDS011;31888;44.512;26.104;2023-05-10T04:19:56;19.63;;;12.60;;
46158;SDS011;31888;44.512;26.104;2023-05-10T04:22:21;23.73;;;12.75;;
46158;SDS011;31888;44.512;26.104;2023-05-10T04:24:45;20.25;;;12.63;;
46158;SDS011;31888;44.512;26.104;2023-05-10T04:27:12;22.60;;;12.50;;
46158;SDS011;31888;44.512;26.104;2023-05-10T04:29:36;22.27;;;12.38;;
46158;SDS011;31888;44.512;26.104;2023-05-10T04:32:01;20.48;;;12.30;;
46158;SDS011;31888;44.512;26.104;2023-05-10T04:34:26;28.08;;;12.77;;
46158;SDS011;31888;44.512;26.104;2023-05-10T04:36:52;22.77;;;11.65;;
46158;SDS011;31888;44.512;26.104;2023-05-10T04:39:17;21.05;;;12.60;;
46158;SDS011;31888;44.512;26.104;2023-05-10T04:41:41;21.23;;;12.65;;
46158;SDS011;31888;44.512;26.104;2023-05-10T04:44:05;20.57;;;12.40;;
46158;SDS011;31888;44.512;26.104;2023-05-10T04:46:30;21.55;;;11.48;;
46158;SDS011;31888;44.512;26.104;2023-05-10T04:48:54;23.17;;;12.00;;
46158;SDS011;31888;44.512;26.104;2023-05-10T04:51:19;18.77;;;11.32;;
46158;SDS011;31888;44.512;26.104;2023-05-10T04:53:45;20.70;;;11.20;;
46158;SDS011;31888;44.512;26.104;2023-05-10T04:56:26;19.42;;;11.32;;
46158;SDS011;31888;44.512;26.104;2023-05-10T04:58:50;25.52;;;10.45;;
46158;SDS011;31888;44.512;26.104;2023-05-10T05:01:15;16.90;;;11.38;;
46158;SDS011;31888;44.512;26.104;2023-05-10T05:03:39;22.48;;;10.52;;
46158;SDS011;31888;44.512;26.104;2023-05-10T05:06:05;21.40;;;11.20;;
46158;SDS011;31888;44.512;26.104;2023-05-10T05:08:30;18.38;;;10.60;;
46158;SDS011;31888;44.512;26.104;2023-05-10T05:10:56;18.58;;;9.73;;
46158;SDS011;31888;44.512;26.104;2023-05-10T05:13:21;22.08;;;10.95;;
46158;SDS011;31888;44.512;26.104;2023-05-10T05:15:46;17.15;;;9.88;;
46158;SDS011;31888;44.512;26.104;2023-05-10T05:18:10;20.33;;;10.75;;
46158;SDS011;31888;44.512;26.104;2023-05-10T05:20:35;20.08;;;11.02;;
46158;SDS011;31888;44.512;26.104;2023-05-10T05:22:59;17.42;;;10.02;;
46158;SDS011;31888;44.512;26.104;2023-05-10T05:25:24;15.93;;;9.93;;
46158;SDS011;31888;44.512;26.104;2023-05-10T05:27:50;18.23;;;9.55;;
46158;SDS011;31888;44.512;26.104;2023-05-10T05:30:14;17.88;;;10.65;;
46158;SDS011;31888;44.512;26.104;2023-05-10T05:32:39;15.40;;;8.82;;
46158;SDS011;31888;44.512;26.104;2023-05-10T05:35:04;20.33;;;9.98;;
46158;SDS011;31888;44.512;26.104;2023-05-10T05:37:29;15.65;;;9.32;;
46158;SDS011;31888;44.512;26.104;2023-05-10T05:39:53;15.85;;;9.55;;
46158;SDS011;31888;44.512;26.104;2023-05-10T05:42:18;12.70;;;9.27;;
46158;SDS011;31888;44.512;26.104;2023-05-10T05:44:45;16.23;;;9.38;;
46158;SDS011;31888;44.512;26.104;2023-05-10T05:47:10;18.30;;;9.23;;
46158;SDS011;31888;44.512;26.104;2023-05-10T05:49:34;15.32;;;8.73;;
46158;SDS011;31888;44.512;26.104;2023-05-10T05:51:59;18.05;;;9.15;;
46158;SDS011;31888;44.512;26.104;2023-05-10T05:54:27;17.67;;;9.02;;
46158;SDS011;31888;44.512;26.104;2023-05-10T05:56:53;14.88;;;9.13;;
46158;SDS011;31888;44.512;26.104;2023-05-10T05:59:19;15.00;;;9.38;;
46158;SDS011;31888;44.512;26.104;2023-05-10T06:01:45;13.43;;;8.27;;
46158;SDS011;31888;44.512;26.104;2023-05-10T06:04:09;15.07;;;8.30;;
46158;SDS011;31888;44.512;26.104;2023-05-10T06:06:35;16.48;;;8.63;;
46158;SDS011;31888;44.512;26.104;2023-05-10T06:09:00;16.60;;;8.65;;
46158;SDS011;31888;44.512;26.104;2023-05-10T06:11:25;14.27;;;8.18;;
46158;SDS011;31888;44.512;26.104;2023-05-10T06:13:50;14.55;;;8.68;;
46158;SDS011;31888;44.512;26.104;2023-05-10T06:16:14;13.82;;;8.88;;
46158;SDS011;31888;44.512;26.104;2023-05-10T06:18:40;14.07;;;7.93;;
46158;SDS011;31888;44.512;26.104;2023-05-10T06:21:05;16.90;;;8.35;;
46158;SDS011;31888;44.512;26.104;2023-05-10T06:23:29;14.23;;;7.78;;
46158;SDS011;31888;44.512;26.104;2023-05-10T06:25:55;13.18;;;7.38;;
46158;SDS011;31888;44.512;26.104;2023-05-10T06:28:20;9.93;;;6.93;;
46158;SDS011;31888;44.512;26.104;2023-05-10T06:30:45;10.25;;;6.95;;
46158;SDS011;31888;44.512;26.104;2023-05-10T06:33:11;9.15;;;5.90;;
46158;SDS011;31888;44.512;26.104;2023-05-10T06:35:37;12.48;;;6.22;;
46158;SDS011;31888;44.512;26.104;2023-05-10T06:38:02;11.40;;;5.80;;
46158;SDS011;31888;44.512;26.104;2023-05-10T06:40:27;9.52;;;6.10;;
46158;SDS011;31888;44.512;26.104;2023-05-10T06:42:51;13.30;;;5.85;;
46158;SDS011;31888;44.512;26.104;2023-05-10T06:45:16;10.18;;;5.10;;
46158;SDS011;31888;44.512;26.104;2023-05-10T06:47:41;14.00;;;6.05;;
46158;SDS011;31888;44.512;26.104;2023-05-10T06:50:07;9.30;;;5.88;;
46158;SDS011;31888;44.512;26.104;2023-05-10T06:52:34;8.88;;;5.63;;
46158;SDS011;31888;44.512;26.104;2023-05-10T06:54:58;8.90;;;4.97;;
46158;SDS011;31888;44.512;26.104;2023-05-10T07:00:08;7.80;;;5.22;;
46158;SDS011;31888;44.512;26.104;2023-05-10T07:02:44;8.43;;;4.88;;
46158;SDS011;31888;44.512;26.104;2023-05-10T07:05:09;8.75;;;4.65;;
46158;SDS011;31888;44.512;26.104;2023-05-10T07:07:37;12.50;;;5.40;;
46158;SDS011;31888;44.512;26.104;2023-05-10T07:10:02;9.93;;;5.20;;
46158;SDS011;31888;44.512;26.104;2023-05-10T07:12:41;13.50;;;5.43;;
46158;SDS011;31888;44.512;26.104;2023-05-10T07:15:08;7.07;;;4.43;;
46158;SDS011;31888;44.512;26.104;2023-05-10T07:17:41;9.07;;;5.70;;
46158;SDS011;31888;44.512;26.104;2023-05-10T07:20:08;10.20;;;4.80;;
46158;SDS011;31888;44.512;26.104;2023-05-10T07:22:33;9.60;;;5.28;;
46158;SDS011;31888;44.512;26.104;2023-05-10T07:27:42;10.00;;;5.38;;
46158;SDS011;31888;44.512;26.104;2023-05-10T07:30:08;10.98;;;4.68;;
46158;SDS011;31888;44.512;26.104;2023-05-10T07:32:39;7.95;;;4.10;;
46158;SDS011;31888;44.512;26.104;2023-05-10T07:35:04;8.57;;;5.28;;
46158;SDS011;31888;44.512;26.104;2023-05-10T07:37:33;8.23;;;5.57;;
46158;SDS011;31888;44.512;26.104;2023-05-10T07:40:01;8.05;;;4.63;;
46158;SDS011;31888;44.512;26.104;2023-05-10T07:42:28;7.75;;;4.80;;
46158;SDS011;31888;44.512;26.104;2023-05-10T07:44:52;12.93;;;4.90;;
46158;SDS011;31888;44.512;26.104;2023-05-10T07:47:17;8.25;;;4.93;;
46158;SDS011;31888;44.512;26.104;2023-05-10T07:49:45;9.93;;;5.28;;
46158;SDS011;31888;44.512;26.104;2023-05-10T07:52:12;6.32;;;4.57;;
46158;SDS011;31888;44.512;26.104;2023-05-10T07:54:38;7.47;;;4.40;;
46158;SDS011;31888;44.512;26.104;2023-05-10T07:57:02;11.82;;;4.95;;
46158;SDS011;31888;44.512;26.104;2023-05-10T07:59:29;7.20;;;4.82;;
46158;SDS011;31888;44.512;26.104;2023-05-10T08:01:54;14.73;;;5.60;;
46158;SDS011;31888;44.512;26.104;2023-05-10T08:04:19;11.40;;;5.50;;
46158;SDS011;31888;44.512;26.104;2023-05-10T08:06:44;10.73;;;5.03;;
46158;SDS011;31888;44.512;26.104;2023-05-10T08:09:09;8.23;;;4.70;;
46158;SDS011;31888;44.512;26.104;2023-05-10T08:11:36;15.15;;;5.38;;
46158;SDS011;31888;44.512;26.104;2023-05-10T08:14:01;8.63;;;4.45;;
46158;SDS011;31888;44.512;26.104;2023-05-10T08:16:27;7.85;;;4.88;;
46158;SDS011;31888;44.512;26.104;2023-05-10T08:18:51;6.45;;;4.43;;
46158;SDS011;31888;44.512;26.104;2023-05-10T08:21:18;7.47;;;4.18;;
46158;SDS011;31888;44.512;26.104;2023-05-10T08:23:43;8.00;;;4.57;;
46158;SDS011;31888;44.512;26.104;2023-05-10T08:26:09;7.30;;;4.38;;
46158;SDS011;31888;44.512;26.104;2023-05-10T08:28:34;8.27;;;4.07;;
46158;SDS011;31888;44.512;26.104;2023-05-10T08:31:02;7.38;;;3.75;;
46158;SDS011;31888;44.512;26.104;2023-05-10T08:33:28;8.68;;;4.47;;
46158;SDS011;31888;44.512;26.104;2023-05-10T08:35:53;8.13;;;4.28;;
46158;SDS011;31888;44.512;26.104;2023-05-10T08:38:22;26.65;;;5.63;;
46158;SDS011;31888;44.512;26.104;2023-05-10T08:40:51;12.45;;;5.30;;
46158;SDS011;31888;44.512;26.104;2023-05-10T08:43:28;9.37;;;4.80;;
46158;SDS011;31888;44.512;26.104;2023-05-10T08:45:53;8.23;;;4.70;;
46158;SDS011;31888;44.512;26.104;2023-05-10T08:48:22;11.60;;;5.13;;
46158;SDS011;31888;44.512;26.104;2023-05-10T08:50:51;7.95;;;5.00;;
46158;SDS011;31888;44.512;26.104;2023-05-10T08:53:17;10.02;;;4.72;;
46158;SDS011;31888;44.512;26.104;2023-05-10T08:55:43;9.27;;;4.95;;
46158;SDS011;31888;44.512;26.104;2023-05-10T08:58:09;6.70;;;4.30;;
46158;SDS011;31888;44.512;26.104;2023-05-10T09:00:35;7.97;;;5.00;;
46158;SDS011;31888;44.512;26.104;2023-05-10T09:03:02;5.95;;;4.82;;
46158;SDS011;31888;44.512;26.104;2023-05-10T09:05:29;7.53;;;4.43;;
46158;SDS011;31888;44.512;26.104;2023-05-10T09:08:08;10.68;;;4.88;;
46158;SDS011;31888;44.512;26.104;2023-05-10T09:10:37;10.15;;;4.30;;
46158;SDS011;31888;44.512;26.104;2023-05-10T09:13:05;7.75;;;4.10;;
46158;SDS011;31888;44.512;26.104;2023-05-10T09:15:31;9.73;;;4.47;;
46158;SDS011;31888;44.512;26.104;2023-05-10T09:18:06;10.90;;;5.07;;
46158;SDS011;31888;44.512;26.104;2023-05-10T09:20:40;8.40;;;5.50;;
46158;SDS011;31888;44.512;26.104;2023-05-10T09:23:09;9.30;;;4.75;;
46158;SDS011;31888;44.512;26.104;2023-05-10T09:25:35;8.93;;;4.93;;
46158;SDS011;31888;44.512;26.104;2023-05-10T09:28:03;9.32;;;5.28;;
46158;SDS011;31888;44.512;26.104;2023-05-10T09:30:37;10.00;;;5.10;;
46158;SDS011;31888;44.512;26.104;2023-05-10T09:33:05;8.98;;;5.20;;
46158;SDS011;31888;44.512;26.104;2023-05-10T09:35:31;9.93;;;5.03;;
46158;SDS011;31888;44.512;26.104;2023-05-10T09:38:00;8.27;;;4.65;;
46158;SDS011;31888;44.512;26.104;2023-05-10T09:40:30;8.63;;;4.75;;
46158;SDS011;31888;44.512;26.104;2023-05-10T09:42:55;11.18;;;4.78;;
46158;SDS011;31888;44.512;26.104;2023-05-10T09:45:22;12.38;;;5.93;;
46158;SDS011;31888;44.512;26.104;2023-05-10T09:47:52;13.88;;;5.38;;
46158;SDS011;31888;44.512;26.104;2023-05-10T09:50:27;8.15;;;5.15;;
46158;SDS011;31888;44.512;26.104;2023-05-10T09:52:56;13.02;;;4.60;;
46158;SDS011;31888;44.512;26.104;2023-05-10T09:55:23;14.48;;;5.05;;
46158;SDS011;31888;44.512;26.104;2023-05-10T09:57:59;9.82;;;4.75;;
46158;SDS011;31888;44.512;26.104;2023-05-10T10:00:26;9.82;;;5.50;;
46158;SDS011;31888;44.512;26.104;2023-05-10T10:02:54;9.25;;;5.22;;
46158;SDS011;31888;44.512;26.104;2023-05-10T10:05:19;9.68;;;4.70;;
46158;SDS011;31888;44.512;26.104;2023-05-10T10:07:47;8.43;;;5.00;;
46158;SDS011;31888;44.512;26.104;2023-05-10T10:10:16;10.90;;;5.63;;
46158;SDS011;31888;44.512;26.104;2023-05-10T10:12:41;9.73;;;5.38;;
46158;SDS011;31888;44.512;26.104;2023-05-10T10:15:10;9.43;;;5.55;;
46158;SDS011;31888;44.512;26.104;2023-05-10T10:17:43;8.75;;;4.70;;
46158;SDS011;31888;44.512;26.104;2023-05-10T10:20:09;10.27;;;4.97;;
46158;SDS011;31888;44.512;26.104;2023-05-10T10:22:34;6.60;;;4.50;;
46158;SDS011;31888;44.512;26.104;2023-05-10T10:25:00;7.47;;;4.93;;
46158;SDS011;31888;44.512;26.104;2023-05-10T10:27:27;7.32;;;5.13;;
46158;SDS011;31888;44.512;26.104;2023-05-10T10:30:01;7.43;;;4.30;;
46158;SDS011;31888;44.512;26.104;2023-05-10T10:32:35;10.82;;;4.63;;
46158;SDS011;31888;44.512;26.104;2023-05-10T10:35:12;14.10;;;5.17;;
46158;SDS011;31888;44.512;26.104;2023-05-10T10:37:43;9.05;;;5.30;;
46158;SDS011;31888;44.512;26.104;2023-05-10T10:40:24;8.88;;;5.10;;
46158;SDS011;31888;44.512;26.104;2023-05-10T10:42:50;9.70;;;4.65;;
46158;SDS011;31888;44.512;26.104;2023-05-10T10:45:16;7.55;;;4.45;;
46158;SDS011;31888;44.512;26.104;2023-05-10T10:47:42;11.30;;;4.90;;
46158;SDS011;31888;44.512;26.104;2023-05-10T10:50:08;7.90;;;4.53;;
46158;SDS011;31888;44.512;26.104;2023-05-10T10:52:35;9.65;;;4.63;;
46158;SDS011;31888;44.512;26.104;2023-05-10T10:55:02;5.45;;;4.15;;
46158;SDS011;31888;44.512;26.104;2023-05-10T10:57:32;8.18;;;4.60;;
46158;SDS011;31888;44.512;26.104;2023-05-10T11:00:19;11.00;;;4.10;;
46158;SDS011;31888;44.512;26.104;2023-05-10T11:02:51;6.57;;;4.00;;
46158;SDS011;31888;44.512;26.104;2023-05-10T11:05:24;6.35;;;3.88;;
46158;SDS011;31888;44.512;26.104;2023-05-10T11:08:07;8.35;;;4.78;;
46158;SDS011;31888;44.512;26.104;2023-05-10T11:10:40;8.73;;;4.50;;
46158;SDS011;31888;44.512;26.104;2023-05-10T11:13:14;7.97;;;4.18;;
46158;SDS011;31888;44.512;26.104;2023-05-10T11:15:48;7.75;;;4.93;;
46158;SDS011;31888;44.512;26.104;2023-05-10T11:18:18;5.75;;;4.28;;
46158;SDS011;31888;44.512;26.104;2023-05-10T11:20:49;6.88;;;4.13;;
46158;SDS011;31888;44.512;26.104;2023-05-10T11:23:15;9.65;;;4.78;;
46158;SDS011;31888;44.512;26.104;2023-05-10T11:25:43;8.50;;;4.40;;
46158;SDS011;31888;44.512;26.104;2023-05-10T11:28:13;7.22;;;4.30;;
46158;SDS011;31888;44.512;26.104;2023-05-10T11:30:38;9.02;;;4.68;;
46158;SDS011;31888;44.512;26.104;2023-05-10T11:33:09;6.90;;;4.55;;
46158;SDS011;31888;44.512;26.104;2023-05-10T11:35:50;7.28;;;4.28;;
46158;SDS011;31888;44.512;26.104;2023-05-10T11:38:21;8.45;;;5.05;;
46158;SDS011;31888;44.512;26.104;2023-05-10T11:40:45;9.35;;;4.50;;
46158;SDS011;31888;44.512;26.104;2023-05-10T11:43:11;8.02;;;4.45;;
46158;SDS011;31888;44.512;26.104;2023-05-10T11:45:36;6.18;;;4.45;;
46158;SDS011;31888;44.512;26.104;2023-05-10T11:48:03;10.07;;;4.15;;
46158;SDS011;31888;44.512;26.104;2023-05-10T11:50:28;8.18;;;4.20;;
46158;SDS011;31888;44.512;26.104;2023-05-10T11:52:56;6.50;;;4.35;;
46158;SDS011;31888;44.512;26.104;2023-05-10T11:55:22;6.43;;;4.25;;
46158;SDS011;31888;44.512;26.104;2023-05-10T11:57:49;6.38;;;4.00;;
46158;SDS011;31888;44.512;26.104;2023-05-10T12:00:16;8.82;;;4.30;;
46158;SDS011;31888;44.512;26.104;2023-05-10T12:02:50;7.80;;;4.30;;
46158;SDS011;31888;44.512;26.104;2023-05-10T12:05:19;9.32;;;4.28;;
46158;SDS011;31888;44.512;26.104;2023-05-10T12:07:46;7.00;;;4.75;;
46158;SDS011;31888;44.512;26.104;2023-05-10T12:10:13;8.60;;;5.25;;
46158;SDS011;31888;44.512;26.104;2023-05-10T12:12:43;7.93;;;4.88;;
46158;SDS011;31888;44.512;26.104;2023-05-10T12:15:10;6.38;;;4.45;;
46158;SDS011;31888;44.512;26.104;2023-05-10T12:17:37;9.60;;;4.65;;
46158;SDS011;31888;44.512;26.104;2023-05-10T12:20:14;12.82;;;4.32;;
46158;SDS011;31888;44.512;26.104;2023-05-10T12:22:44;7.95;;;3.97;;
46158;SDS011;31888;44.512;26.104;2023-05-10T12:25:13;5.80;;;3.90;;
46158;SDS011;31888;44.512;26.104;2023-05-10T12:27:39;7.13;;;4.35;;
46158;SDS011;31888;44.512;26.104;2023-05-10T12:30:04;6.93;;;4.30;;
46158;SDS011;31888;44.512;26.104;2023-05-10T12:32:39;6.05;;;4.22;;
46158;SDS011;31888;44.512;26.104;2023-05-10T12:35:11;5.47;;;3.83;;
46158;SDS011;31888;44.512;26.104;2023-05-10T12:37:35;5.05;;;3.53;;
46158;SDS011;31888;44.512;26.104;2023-05-10T12:40:06;7.18;;;4.00;;
46158;SDS011;31888;44.512;26.104;2023-05-10T12:42:36;8.02;;;4.00;;
46158;SDS011;31888;44.512;26.104;2023-05-10T12:45:01;6.50;;;4.22;;
46158;SDS011;31888;44.512;26.104;2023-05-10T12:47:34;6.88;;;4.57;;
46158;SDS011;31888;44.512;26.104;2023-05-10T12:49:59;6.82;;;3.72;;
46158;SDS011;31888;44.512;26.104;2023-05-10T12:52:25;6.13;;;3.60;;
46158;SDS011;31888;44.512;26.104;2023-05-10T12:54:50;6.25;;;3.67;;
46158;SDS011;31888;44.512;26.104;2023-05-10T12:57:15;5.43;;;3.88;;
46158;SDS011;31888;44.512;26.104;2023-05-10T12:59:41;6.95;;;3.83;;
46158;SDS011;31888;44.512;26.104;2023-05-10T13:02:08;8.05;;;3.85;;
46158;SDS011;31888;44.512;26.104;2023-05-10T13:04:33;4.43;;;3.22;;
46158;SDS011;31888;44.512;26.104;2023-05-10T13:07:00;10.18;;;4.93;;
46158;SDS011;31888;44.512;26.104;2023-05-10T13:09:28;7.00;;;4.50;;
46158;SDS011;31888;44.512;26.104;2023-05-10T13:11:54;13.20;;;4.57;;
46158;SDS011;31888;44.512;26.104;2023-05-10T13:14:21;7.93;;;3.97;;
46158;SDS011;31888;44.512;26.104;2023-05-10T13:17:17;8.95;;;4.63;;
46158;SDS011;31888;44.512;26.104;2023-05-10T13:19:45;5.43;;;3.90;;
46158;SDS011;31888;44.512;26.104;2023-05-10T13:22:10;8.15;;;4.10;;
46158;SDS011;31888;44.512;26.104;2023-05-10T13:24:35;9.40;;;3.80;;
46158;SDS011;31888;44.512;26.104;2023-05-10T13:27:00;8.27;;;3.88;;
46158;SDS011;31888;44.512;26.104;2023-05-10T13:29:27;10.70;;;5.05;;
46158;SDS011;31888;44.512;26.104;2023-05-10T13:31:52;11.63;;;3.92;;
46158;SDS011;31888;44.512;26.104;2023-05-10T13:34:22;9.35;;;4.53;;
46158;SDS011;31888;44.512;26.104;2023-05-10T13:36:47;8.23;;;4.25;;
46158;SDS011;31888;44.512;26.104;2023-05-10T13:39:11;4.95;;;3.72;;
46158;SDS011;31888;44.512;26.104;2023-05-10T13:41:36;6.70;;;4.63;;
46158;SDS011;31888;44.512;26.104;2023-05-10T13:44:01;5.80;;;3.60;;
46158;SDS011;31888;44.512;26.104;2023-05-10T13:46:28;7.35;;;4.45;;
46158;SDS011;31888;44.512;26.104;2023-05-10T13:48:53;4.75;;;3.78;;
46158;SDS011;31888;44.512;26.104;2023-05-10T13:51:20;4.70;;;3.38;;
46158;SDS011;31888;44.512;26.104;2023-05-10T13:53:45;7.68;;;4.07;;
46158;SDS011;31888;44.512;26.104;2023-05-10T13:56:26;8.95;;;4.20;;
46158;SDS011;31888;44.512;26.104;2023-05-10T13:58:51;7.25;;;3.90;;
46158;SDS011;31888;44.512;26.104;2023-05-10T14:01:31;5.40;;;4.13;;
46158;SDS011;31888;44.512;26.104;2023-05-10T14:03:56;7.65;;;3.65;;
46158;SDS011;31888;44.512;26.104;2023-05-10T14:06:22;4.88;;;3.13;;
46158;SDS011;31888;44.512;26.104;2023-05-10T14:08:49;5.45;;;3.25;;
46158;SDS011;31888;44.512;26.104;2023-05-10T14:11:14;5.68;;;3.45;;
46158;SDS011;31888;44.512;26.104;2023-05-10T14:13:40;5.28;;;3.22;;
46158;SDS011;31888;44.512;26.104;2023-05-10T14:16:05;10.45;;;4.10;;
46158;SDS011;31888;44.512;26.104;2023-05-10T14:18:32;5.25;;;3.50;;
46158;SDS011;31888;44.512;26.104;2023-05-10T14:20:57;4.82;;;3.50;;
46158;SDS011;31888;44.512;26.104;2023-05-10T14:23:24;6.75;;;3.42;;
46158;SDS011;31888;44.512;26.104;2023-05-10T14:25:51;10.18;;;3.35;;
46158;SDS011;31888;44.512;26.104;2023-05-10T14:28:17;6.43;;;4.00;;
46158;SDS011;31888;44.512;26.104;2023-05-10T14:30:43;10.15;;;3.92;;
46158;SDS011;31888;44.512;26.104;2023-05-10T14:33:09;8.35;;;3.75;;
46158;SDS011;31888;44.512;26.104;2023-05-10T14:35:34;5.90;;;4.25;;